KSDM/SDM METAR and TAF weather

Enter ICAO airport designator
Station Type Date Time Source
KSDM METAR 2020/07/11 20:53 UTC NOAA

KSDM 112053Z 29006G14KT 10SM CLR 30/18 A2997 RMK AO2 SLP143 T03000178 58001 $


Station Type Date Time Source
KSDM Decoded METAR 2020/07/11 20:53 UTC NOAA

San Diego, Brown Field Municipal Airport, CA, United States (KSDM) 32-34-31N 116-59-35W 159M
Jul 11, 2020 - 04:53 PM EDT / 2020.07.11 2053 UTC
Wind: from the WNW (290 degrees) at 7 MPH (6 KT) gusting to 16 MPH (14 KT):0
Visibility: 10 mile(s):0
Sky conditions: clear
Temperature: 86.0 F (30.0 C)
Dew Point: 64.0 F (17.8 C)
Relative Humidity: 48%
Pressure (altimeter): 29.97 in. Hg (1014 hPa)
Pressure tendency: 0.00 inches (0.1 hPa) lower than three hours ago
ob: KSDM 112053Z 29006G14KT 10SM CLR 30/18 A2997 RMK AO2 SLP143 T03000178 58001
cycle: 21

Station Type Date Time Source
KSDM TAF UTC NOAA

Error!

Example: see airport list